Terminal Aerodrome Forecast
Issued by NWS

Home | Current Version | Previous Version | Text Only | Print | Product List | Glossary On
Versions: 1 2 3 4 5 6 7 8 9 10 11 12 13 14
055
FTUS46 KMTR 190520
TAFSNS
TAF
KSNS 190520Z 1906/2006 26012KT P6SM SCT030
     FM191100 27008KT P6SM VCSH BKN030
     FM191700 26006KT P6SM SCT040
     FM192000 27015KT P6SM FEW040
     FM200400 30006KT P6SM SKC=

USA.gov is the U.S. government's official web portal to all federal, state and local government web resources and services.